createdAt,value
2022-09-13T00:00:52.124Z,0
2022-09-13T00:01:52.940Z,0
2022-09-13T00:02:51.713Z,0
2022-09-13T00:03:52.457Z,0
2022-09-13T00:04:52.547Z,0
2022-09-13T00:05:52.303Z,0
2022-09-13T00:06:51.668Z,0
2022-09-13T00:07:52.164Z,0
2022-09-13T00:08:52.739Z,0
2022-09-13T00:09:51.625Z,0
2022-09-13T00:10:52.413Z,0
2022-09-13T00:11:51.867Z,0
2022-09-13T00:12:51.856Z,0
2022-09-13T00:13:51.584Z,0
2022-09-13T00:14:51.834Z,0
2022-09-13T00:15:52.082Z,0
2022-09-13T00:16:52.392Z,0
2022-09-13T00:17:51.795Z,0
2022-09-13T00:18:52.381Z,0
2022-09-13T00:19:51.783Z,0
2022-09-13T00:20:52.112Z,0
2022-09-13T00:21:52.037Z,0
2022-09-13T00:22:51.503Z,0
2022-09-13T00:23:52.264Z,0
2022-09-13T00:24:51.470Z,0
2022-09-13T00:25:52.267Z,0
2022-09-13T00:26:51.963Z,0
2022-09-13T00:27:51.693Z,0
2022-09-13T00:28:52.181Z,0
2022-09-13T00:29:52.186Z,0
2022-09-13T00:30:51.913Z,0
2022-09-13T00:31:52.355Z,0
2022-09-13T00:32:51.436Z,0
2022-09-13T00:33:51.897Z,0
2022-09-13T00:34:51.624Z,0
2022-09-13T00:35:51.110Z,0
2022-09-13T00:36:52.304Z,0
2022-09-13T00:37:52.201Z,0
2022-09-13T00:38:51.855Z,0
2022-09-13T00:39:56.919Z,0
2022-09-13T00:40:51.803Z,0
2022-09-13T00:41:51.303Z,0
2022-09-13T00:42:51.543Z,0
2022-09-13T00:43:52.137Z,0
2022-09-13T00:44:51.008Z,0
2022-09-13T00:45:52.144Z,0
2022-09-13T00:46:51.486Z,0
2022-09-13T00:47:51.481Z,0
2022-09-13T00:48:51.830Z,0
2022-09-13T00:49:51.711Z,0
2022-09-13T00:50:51.707Z,0
2022-09-13T00:51:51.698Z,0
2022-09-13T00:52:56.176Z,0
2022-09-13T00:53:51.835Z,0
2022-09-13T00:54:51.153Z,0
2022-09-13T00:55:51.392Z,0
2022-09-13T00:56:51.381Z,0
2022-09-13T00:57:51.372Z,0
2022-09-13T00:58:51.122Z,0
2022-09-13T00:59:51.353Z,0
2022-09-13T01:00:52.105Z,0
2022-09-13T01:01:51.025Z,0
2022-09-13T01:02:51.068Z,0
2022-09-13T01:03:51.720Z,0
2022-09-13T01:04:51.545Z,0
2022-09-13T01:05:51.297Z,0
2022-09-13T01:06:51.279Z,0
2022-09-13T01:07:51.016Z,0
2022-09-13T01:08:51.865Z,0
2022-09-13T01:09:51.607Z,0
2022-09-13T01:10:51.237Z,0
2022-09-13T01:11:50.963Z,0
2022-09-13T01:12:51.225Z,0
2022-09-13T01:13:51.180Z,0
2022-09-13T01:14:51.193Z,0
2022-09-13T01:15:51.430Z,0
2022-09-13T01:16:56.421Z,0
2022-09-13T01:17:50.895Z,0
2022-09-13T01:18:50.893Z,0
2022-09-13T01:19:50.897Z,0
2022-09-13T01:20:51.387Z,0
2022-09-13T01:21:51.385Z,0
2022-09-13T01:22:51.366Z,0
2022-09-13T01:23:51.681Z,0
2022-09-13T01:24:51.520Z,0
2022-09-13T01:25:51.606Z,0
2022-09-13T01:26:50.557Z,0
2022-09-13T01:27:51.061Z,0
2022-09-13T01:28:51.295Z,0
2022-09-13T01:29:51.292Z,0
2022-09-13T01:30:51.021Z,0
2022-09-13T01:31:51.416Z,0
2022-09-13T01:32:51.257Z,0
2022-09-13T01:34:23.060Z,0
2022-09-13T01:34:50.780Z,0
2022-09-13T01:35:51.228Z,0
2022-09-13T01:36:51.215Z,0
2022-09-13T01:37:51.204Z,0
2022-09-13T01:38:50.420Z,0
2022-09-13T01:39:51.003Z,0
2022-09-13T01:40:51.351Z,0
2022-09-13T01:41:50.673Z,0
2022-09-13T01:42:51.156Z,0
2022-09-13T01:43:51.260Z,0
2022-09-13T01:44:50.866Z,0
2022-09-13T01:45:51.679Z,0
2022-09-13T01:46:52.573Z,0
2022-09-13T01:47:50.835Z,0
2022-09-13T01:48:51.080Z,0
2022-09-13T01:49:51.535Z,0
2022-09-13T01:50:50.933Z,0
2022-09-13T01:51:50.536Z,0
2022-09-13T01:52:50.528Z,0
2022-09-13T01:53:50.917Z,0
2022-09-13T01:54:51.011Z,0
2022-09-13T01:55:51.346Z,0
2022-09-13T01:56:51.178Z,0
2022-09-13T01:57:51.007Z,0
2022-09-13T01:58:50.458Z,0
2022-09-13T01:59:50.707Z,0
2022-09-13T02:00:50.841Z,0
2022-09-13T02:01:50.545Z,0
2022-09-13T02:02:50.693Z,0
2022-09-13T02:03:50.790Z,0
2022-09-13T02:04:50.403Z,0
2022-09-13T02:05:50.900Z,0
2022-09-13T02:06:50.639Z,0
2022-09-13T02:07:50.887Z,0
2022-09-13T02:08:51.126Z,0
2022-09-13T02:09:50.352Z,0
2022-09-13T02:10:50.340Z,0
2022-09-13T02:11:50.833Z,0
2022-09-13T02:12:51.259Z,0
2022-09-13T02:13:51.092Z,0
2022-09-13T02:14:50.557Z,0
2022-09-13T02:15:51.147Z,0
2022-09-13T02:16:50.861Z,0
2022-09-13T02:17:50.003Z,0
2022-09-13T02:18:50.515Z,0
2022-09-13T02:19:50.239Z,0
2022-09-13T02:20:49.979Z,0
2022-09-13T02:21:50.473Z,0
2022-09-13T02:22:50.462Z,0
2022-09-13T02:23:50.660Z,0
2022-09-13T02:24:50.181Z,0
2022-09-13T02:25:50.174Z,0
2022-09-13T02:26:50.674Z,0
2022-09-13T02:27:50.151Z,0
2022-09-13T02:28:50.920Z,0
2022-09-13T02:29:50.756Z,0
2022-09-13T02:30:50.882Z,0
2022-09-13T02:31:50.550Z,0
2022-09-13T02:32:50.358Z,0
2022-09-13T02:33:50.632Z,0
2022-09-13T02:34:50.579Z,0
2022-09-13T02:35:50.114Z,0
2022-09-13T02:36:50.311Z,0
2022-09-13T02:37:50.553Z,0
2022-09-13T02:38:50.537Z,0
2022-09-13T02:39:50.562Z,0
2022-09-13T02:40:50.263Z,0
2022-09-13T02:41:50.009Z,0
2022-09-13T02:42:50.237Z,0
2022-09-13T02:43:50.641Z,0
2022-09-13T02:44:50.662Z,0
2022-09-13T02:45:50.372Z,0
2022-09-13T02:46:50.206Z,0
2022-09-13T02:47:50.440Z,0
2022-09-13T02:48:50.688Z,0
2022-09-13T02:49:50.431Z,0
2022-09-13T02:50:50.409Z,0
2022-09-13T02:51:50.404Z,0
2022-09-13T02:52:49.884Z,0
2022-09-13T02:53:50.373Z,0
2022-09-13T02:54:50.116Z,0
2022-09-13T02:55:50.190Z,0
2022-09-13T02:56:50.096Z,0
2022-09-13T02:57:50.363Z,0
2022-09-13T02:58:50.254Z,0
2022-09-13T02:59:50.063Z,0
2022-09-13T03:00:50.604Z,0
2022-09-13T03:01:50.822Z,0
2022-09-13T03:02:50.028Z,0
2022-09-13T03:03:50.020Z,0
2022-09-13T03:04:50.005Z,0
2022-09-13T03:05:50.004Z,0
2022-09-13T03:06:49.730Z,0
2022-09-13T03:07:49.980Z,0
2022-09-13T03:08:49.974Z,0
2022-09-13T03:09:49.955Z,0
2022-09-13T03:10:49.698Z,0
2022-09-13T03:11:49.939Z,0
2022-09-13T03:12:49.930Z,0
2022-09-13T03:13:49.914Z,0
2022-09-13T03:14:49.906Z,0
2022-09-13T03:15:49.889Z,0
2022-09-13T03:16:50.812Z,0
2022-09-13T03:17:50.149Z,0
2022-09-13T03:18:49.931Z,0
2022-09-13T03:19:50.102Z,0
2022-09-13T03:20:49.336Z,0
2022-09-13T03:21:49.834Z,0
2022-09-13T03:22:49.816Z,0
2022-09-13T03:23:49.561Z,0
2022-09-13T03:24:49.831Z,0
2022-09-13T03:25:50.047Z,0
2022-09-13T03:26:49.812Z,0
2022-09-13T03:27:49.524Z,0
2022-09-13T03:28:49.970Z,0
2022-09-13T03:29:49.748Z,0
2022-09-13T03:30:49.992Z,0
2022-09-13T03:31:50.439Z,0
2022-09-13T03:32:50.401Z,0
2022-09-13T03:49:41.019Z,0
2022-09-13T03:50:39.754Z,0
2022-09-13T03:51:40.516Z,0
2022-09-13T03:52:44.519Z,0
2022-09-13T03:53:40.482Z,0
2022-09-13T03:54:40.495Z,0
2022-09-13T03:55:40.460Z,0
2022-09-13T03:56:40.701Z,0
2022-09-13T03:57:40.183Z,0
2022-09-13T03:58:40.428Z,0
2022-09-13T03:59:40.150Z,0
2022-09-13T04:00:40.177Z,0
2022-09-13T04:01:40.678Z,0
2022-09-13T04:02:40.961Z,0
2022-09-13T04:03:40.116Z,0
2022-09-13T04:04:40.095Z,0
2022-09-13T04:05:40.814Z,0
2022-09-13T04:06:40.336Z,0
2022-09-13T04:07:40.330Z,0
2022-09-13T04:08:40.145Z,0
2022-09-13T04:09:40.313Z,0
2022-09-13T04:10:40.548Z,0
2022-09-13T04:11:39.776Z,0
2022-09-13T04:12:40.268Z,0
2022-09-13T04:13:40.265Z,0
2022-09-13T04:14:40.253Z,0
2022-09-13T04:15:40.022Z,0
2022-09-13T04:16:40.578Z,0
2022-09-13T04:17:39.965Z,0
2022-09-13T04:18:39.698Z,0
2022-09-13T04:19:39.692Z,0
2022-09-13T04:20:40.194Z,0
2022-09-13T04:21:40.655Z,0
2022-09-13T04:22:39.990Z,0
2022-09-13T04:23:39.903Z,0
2022-09-13T04:24:40.153Z,0
2022-09-13T04:25:39.626Z,0
2022-09-13T04:26:39.879Z,0
2022-09-13T04:27:40.129Z,0
2022-09-13T04:28:40.105Z,0
2022-09-13T04:29:40.142Z,0
2022-09-13T04:30:45.143Z,0
2022-09-13T04:31:40.708Z,0
2022-09-13T04:32:39.818Z,0
2022-09-13T04:33:39.297Z,0
2022-09-13T04:34:39.539Z,0
2022-09-13T04:35:40.289Z,0
2022-09-13T04:36:40.284Z,0
2022-09-13T04:37:40.484Z,0
2022-09-13T04:38:39.602Z,0
2022-09-13T04:39:39.820Z,0
2022-09-13T04:40:40.244Z,0
2022-09-13T04:41:39.729Z,0
2022-09-13T04:42:40.226Z,0
2022-09-13T04:43:39.443Z,5
2022-09-13T04:44:39.950Z,5
2022-09-13T04:45:39.778Z,5
2022-09-13T04:46:39.414Z,5
2022-09-13T04:47:39.664Z,5
2022-09-13T04:48:39.787Z,5
2022-09-13T04:49:39.635Z,5
2022-09-13T04:50:39.887Z,5
2022-09-13T04:51:39.616Z,10
2022-09-13T04:52:40.121Z,10
2022-09-13T04:53:40.341Z,10
2022-09-13T04:54:39.843Z,10
2022-09-13T04:55:39.330Z,10
2022-09-13T04:56:40.077Z,15
2022-09-13T04:57:39.560Z,15
2022-09-13T04:58:39.624Z,15
2022-09-13T04:59:39.538Z,20
2022-09-13T05:00:39.533Z,20
2022-09-13T05:01:39.823Z,20
2022-09-13T05:02:39.826Z,25
2022-09-13T05:03:39.759Z,25
2022-09-13T05:04:39.496Z,25
2022-09-13T05:05:39.475Z,30
2022-09-13T05:06:39.226Z,30
2022-09-13T05:07:39.715Z,30
2022-09-13T05:08:39.335Z,35
2022-09-13T05:09:40.355Z,35
2022-09-13T05:10:39.691Z,35
2022-09-13T05:11:39.678Z,35
2022-09-13T05:12:39.422Z,40
2022-09-13T05:13:39.651Z,40
2022-09-13T05:14:39.392Z,40
2022-09-13T05:15:39.162Z,45
2022-09-13T05:16:39.402Z,45
2022-09-13T05:17:39.616Z,45
2022-09-13T05:18:45.300Z,50
2022-09-13T05:19:39.595Z,50
2022-09-13T05:20:39.335Z,50
2022-09-13T05:21:39.854Z,55
2022-09-13T05:22:39.317Z,55
2022-09-13T05:23:39.053Z,60
2022-09-13T05:24:39.828Z,60
2022-09-13T05:25:40.112Z,60
2022-09-13T05:26:39.018Z,60
2022-09-13T05:27:39.005Z,60
2022-09-13T05:28:38.739Z,65
2022-09-13T05:29:39.511Z,65
2022-09-13T05:30:44.561Z,65
2022-09-13T05:31:39.511Z,65
2022-09-13T05:32:39.224Z,65
2022-09-13T05:33:39.210Z,65
2022-09-13T05:34:39.450Z,65
2022-09-13T05:35:39.188Z,65
2022-09-13T05:36:38.667Z,65
2022-09-13T05:37:39.430Z,65
2022-09-13T05:38:39.181Z,65
2022-09-13T05:40:17.599Z,65
2022-09-13T05:40:39.179Z,65
2022-09-13T05:41:39.943Z,65
2022-09-13T05:42:39.375Z,65
2022-09-13T05:43:39.365Z,25
2022-09-13T05:44:39.361Z,65
2022-09-13T05:45:38.850Z,65
2022-09-13T05:46:39.482Z,70
2022-09-13T05:47:39.441Z,70
2022-09-13T05:48:39.728Z,70
2022-09-13T05:50:13.620Z,70
2022-09-13T05:51:06.305Z,75
2022-09-13T05:51:38.791Z,75
2022-09-13T05:52:39.046Z,75
2022-09-13T05:53:39.026Z,80
2022-09-13T05:54:39.274Z,80
2022-09-13T05:55:39.267Z,80
2022-09-13T05:56:39.254Z,85
2022-09-13T05:57:39.748Z,85
2022-09-13T05:58:39.238Z,85
2022-09-13T05:59:39.481Z,85
2022-09-13T06:00:39.215Z,85
2022-09-13T06:01:39.424Z,90
2022-09-13T06:02:39.319Z,90
2022-09-13T06:03:38.696Z,90
2022-09-13T06:04:38.949Z,90
2022-09-13T06:05:40.508Z,90
2022-09-13T06:06:38.654Z,90
2022-09-13T06:07:38.902Z,85
2022-09-13T06:08:38.641Z,85
2022-09-13T06:09:39.138Z,85
2022-09-13T06:10:38.879Z,80
2022-09-13T06:11:38.890Z,75
2022-09-13T06:12:38.856Z,75
2022-09-13T06:13:39.567Z,75
2022-09-13T06:14:38.846Z,75
2022-09-13T06:15:44.771Z,80
2022-09-13T06:16:39.138Z,80
2022-09-13T06:17:38.815Z,85
2022-09-13T06:18:38.810Z,85
2022-09-13T06:19:39.050Z,90
2022-09-13T06:20:38.807Z,90
2022-09-13T06:21:38.783Z,95
2022-09-13T06:22:38.532Z,95
2022-09-13T06:23:39.017Z,95
2022-09-13T06:24:38.507Z,100
2022-09-13T06:25:39.008Z,100
2022-09-13T06:26:38.742Z,105
2022-09-13T06:27:39.246Z,110
2022-09-13T06:28:44.798Z,110
2022-09-13T06:29:39.336Z,115
2022-09-13T06:30:38.972Z,115
2022-09-13T06:31:39.247Z,120
2022-09-13T06:32:38.970Z,120
2022-09-13T06:33:38.439Z,125
2022-09-13T06:34:41.121Z,125
2022-09-13T06:35:38.926Z,130
2022-09-13T06:36:38.167Z,130
2022-09-13T06:37:38.912Z,135
2022-09-13T06:38:39.034Z,140
2022-09-13T06:39:39.167Z,145
2022-09-13T06:40:38.931Z,150
2022-09-13T06:41:38.891Z,150
2022-09-13T06:42:38.620Z,145
2022-09-13T06:43:38.862Z,135
2022-09-13T06:44:38.963Z,135
2022-09-13T06:45:38.365Z,125
2022-09-13T06:46:39.008Z,120
2022-09-13T06:47:38.064Z,115
2022-09-13T06:48:38.828Z,105
2022-09-13T06:49:38.815Z,105
2022-09-13T06:50:38.561Z,95
2022-09-13T06:51:38.555Z,100
2022-09-13T06:52:39.060Z,100
2022-09-13T06:53:38.297Z,100
2022-09-13T06:54:38.532Z,100
2022-09-13T06:55:38.533Z,100
2022-09-13T06:56:38.529Z,95
2022-09-13T06:57:38.512Z,95
2022-09-13T06:58:38.762Z,100
2022-09-13T06:59:38.747Z,100
2022-09-13T07:00:39.586Z,105
2022-09-13T07:01:39.488Z,100
2022-09-13T07:02:38.220Z,105
2022-09-13T07:03:39.006Z,110
2022-09-13T07:04:38.991Z,110
2022-09-13T07:05:38.193Z,110
2022-09-13T07:06:38.463Z,120
2022-09-13T07:07:38.186Z,130
2022-09-13T07:08:38.934Z,135
2022-09-13T07:09:38.675Z,140
2022-09-13T07:10:38.668Z,145
2022-09-13T07:11:37.901Z,145
2022-09-13T07:12:38.402Z,150
2022-09-13T07:13:38.389Z,150
2022-09-13T07:14:38.130Z,145
2022-09-13T07:15:38.340Z,140
2022-09-13T07:16:38.821Z,135
2022-09-13T07:17:40.887Z,135
2022-09-13T07:18:37.987Z,140
2022-09-13T07:19:38.363Z,140
2022-09-13T07:20:38.097Z,140
2022-09-13T07:21:38.667Z,145
2022-09-13T07:22:38.333Z,155
2022-09-13T07:23:38.067Z,170
2022-09-13T07:24:38.326Z,175
2022-09-13T07:25:38.568Z,180
2022-09-13T07:26:38.806Z,185
2022-09-13T07:27:38.307Z,185
2022-09-13T07:28:44.054Z,185
2022-09-13T07:29:38.553Z,175
2022-09-13T07:30:37.766Z,170
2022-09-13T07:31:38.519Z,160
2022-09-13T07:32:39.047Z,140
2022-09-13T07:33:38.381Z,140
2022-09-13T07:34:38.257Z,135
2022-09-13T07:35:37.990Z,145
2022-09-13T07:36:37.992Z,155
2022-09-13T07:37:37.983Z,160
2022-09-13T07:38:38.072Z,165
2022-09-13T07:39:38.227Z,175
2022-09-13T07:40:38.732Z,195
2022-09-13T07:41:37.953Z,205
2022-09-13T07:42:38.203Z,230
2022-09-13T07:43:38.198Z,260
2022-09-13T07:44:39.871Z,275
2022-09-13T07:45:38.443Z,290
2022-09-13T07:46:38.722Z,265
2022-09-13T07:47:37.948Z,235
2022-09-13T07:48:43.166Z,245
2022-09-13T07:49:38.789Z,255
2022-09-13T07:50:38.169Z,255
2022-09-13T07:51:38.164Z,265
2022-09-13T07:52:38.405Z,270
2022-09-13T07:53:38.648Z,265
2022-09-13T07:54:37.882Z,260
2022-09-13T07:55:37.878Z,225
2022-09-13T07:56:38.380Z,195
2022-09-13T07:57:38.374Z,165
2022-09-13T07:58:38.209Z,155
2022-09-13T07:59:39.185Z,155
2022-09-13T08:00:38.126Z,150
2022-09-13T08:01:38.634Z,155
2022-09-13T08:02:39.072Z,160
2022-09-13T08:03:38.349Z,185
2022-09-13T08:04:43.896Z,215
2022-09-13T08:05:38.357Z,240
2022-09-13T08:06:38.330Z,260
2022-09-13T08:07:38.319Z,290
2022-09-13T08:08:37.810Z,300
2022-09-13T08:09:38.059Z,310
2022-09-13T08:10:38.086Z,315
2022-09-13T08:11:38.051Z,310
2022-09-13T08:12:37.798Z,290
2022-09-13T08:13:38.074Z,275
2022-09-13T08:14:37.522Z,240
2022-09-13T08:15:38.396Z,190
2022-09-13T08:16:38.528Z,170
2022-09-13T08:17:38.269Z,160
2022-09-13T08:18:38.270Z,160
2022-09-13T08:19:38.517Z,175
2022-09-13T08:20:38.715Z,190
2022-09-13T08:21:38.107Z,185
2022-09-13T08:22:37.999Z,190
2022-09-13T08:23:37.523Z,215
2022-09-13T08:24:38.496Z,240
2022-09-13T08:25:37.470Z,250
2022-09-13T08:26:38.241Z,245
2022-09-13T08:27:38.476Z,235
2022-09-13T08:28:37.710Z,210
2022-09-13T08:29:37.960Z,195
2022-09-13T08:30:37.728Z,195
2022-09-13T08:31:38.103Z,195
2022-09-13T08:32:37.692Z,190
2022-09-13T08:33:39.514Z,185
2022-09-13T08:34:38.188Z,175
2022-09-13T08:35:37.728Z,160
2022-09-13T08:36:38.619Z,140
2022-09-13T08:37:38.197Z,120
2022-09-13T08:38:37.665Z,110
2022-09-13T08:39:40.857Z,110
2022-09-13T08:40:37.653Z,110
2022-09-13T08:41:37.654Z,110
2022-09-13T08:42:38.148Z,115
2022-09-13T08:43:38.184Z,125
2022-09-13T08:44:38.147Z,140
2022-09-13T08:45:37.875Z,145
2022-09-13T08:46:38.368Z,145
2022-09-13T08:47:38.378Z,145
2022-09-13T08:48:37.865Z,155
2022-09-13T08:49:37.865Z,175
2022-09-13T08:50:37.853Z,195
2022-09-13T08:51:37.851Z,225
2022-09-13T08:52:38.535Z,250
2022-09-13T08:53:38.148Z,275
2022-09-13T08:54:37.839Z,290
2022-09-13T08:55:37.573Z,285
2022-09-13T08:56:38.074Z,280
2022-09-13T08:57:37.563Z,260
2022-09-13T08:58:38.072Z,250
2022-09-13T08:59:38.066Z,255
2022-09-13T09:00:37.797Z,280
2022-09-13T09:01:37.912Z,265
2022-09-13T09:02:37.653Z,275
2022-09-13T09:03:37.657Z,295
2022-09-13T09:04:38.064Z,320
2022-09-13T09:05:37.774Z,330
2022-09-13T09:06:38.286Z,315
2022-09-13T09:07:38.023Z,295
2022-09-13T09:08:38.396Z,300
2022-09-13T09:09:37.528Z,300
2022-09-13T09:10:37.515Z,305
2022-09-13T09:11:38.258Z,315
2022-09-13T09:12:37.482Z,325
2022-09-13T09:13:38.044Z,325
2022-09-13T09:14:37.998Z,315
2022-09-13T09:15:38.068Z,305
2022-09-13T09:16:37.725Z,300
2022-09-13T09:17:37.492Z,300
2022-09-13T09:18:37.970Z,300
2022-09-13T09:19:37.471Z,295
2022-09-13T09:20:37.712Z,295
2022-09-13T09:21:37.807Z,290
2022-09-13T09:22:37.701Z,280
2022-09-13T09:23:38.036Z,280
2022-09-13T09:24:38.053Z,285
2022-09-13T09:25:38.239Z,275
2022-09-13T09:26:37.932Z,255
2022-09-13T09:27:37.951Z,250
2022-09-13T09:28:37.958Z,265
2022-09-13T09:29:37.934Z,310
2022-09-13T09:30:38.226Z,350
2022-09-13T09:31:38.201Z,370
2022-09-13T09:32:37.665Z,405
2022-09-13T09:33:37.980Z,400
2022-09-13T09:34:37.674Z,385
2022-09-13T09:35:38.164Z,355
2022-09-13T09:36:37.903Z,345
2022-09-13T09:37:37.387Z,335
2022-09-13T09:38:37.660Z,340
2022-09-13T09:39:37.639Z,340
2022-09-13T09:40:41.813Z,320
2022-09-13T09:41:37.996Z,300
2022-09-13T09:42:38.176Z,280
2022-09-13T09:43:37.746Z,265
2022-09-13T09:44:38.128Z,280
2022-09-13T09:45:38.124Z,290
2022-09-13T09:46:38.056Z,300
2022-09-13T09:47:39.007Z,315
2022-09-13T09:48:37.601Z,325
2022-09-13T09:49:37.594Z,345
2022-09-13T09:50:37.592Z,350
2022-09-13T09:51:37.849Z,355
2022-09-13T09:52:37.846Z,355
2022-09-13T09:53:43.422Z,365
2022-09-13T09:54:37.351Z,375
2022-09-13T09:55:37.891Z,370
2022-09-13T09:56:38.265Z,350
2022-09-13T09:57:37.855Z,330
2022-09-13T09:58:37.832Z,320
2022-09-13T09:59:37.313Z,320
2022-09-13T10:00:37.572Z,330
2022-09-13T10:01:37.783Z,340
2022-09-13T10:02:37.403Z,335
2022-09-13T10:03:37.588Z,315
2022-09-13T10:04:37.802Z,295
2022-09-13T10:05:37.801Z,290
2022-09-13T10:06:38.093Z,285
2022-09-13T10:07:37.286Z,280
2022-09-13T10:08:37.793Z,275
2022-09-13T10:09:38.037Z,255
2022-09-13T10:10:37.531Z,235
2022-09-13T10:11:37.267Z,225
2022-09-13T10:12:38.295Z,220
2022-09-13T10:13:41.634Z,210
2022-09-13T10:14:37.773Z,190
2022-09-13T10:15:37.790Z,170
2022-09-13T10:16:37.951Z,155
2022-09-13T10:17:37.506Z,140
2022-09-13T10:18:53.849Z,135
2022-09-13T10:19:37.497Z,140
2022-09-13T10:20:37.759Z,145
2022-09-13T10:21:37.489Z,160
2022-09-13T10:22:37.749Z,175
2022-09-13T10:23:37.236Z,195
2022-09-13T10:24:37.990Z,225
2022-09-13T10:25:37.747Z,255
2022-09-13T10:26:37.469Z,295
2022-09-13T10:27:37.990Z,320
2022-09-13T10:28:38.164Z,320
2022-09-13T10:29:37.979Z,305
2022-09-13T10:30:37.752Z,290
2022-09-13T10:31:37.476Z,275
2022-09-13T10:32:37.968Z,275
2022-09-13T10:33:37.193Z,275
2022-09-13T10:34:37.961Z,275
2022-09-13T10:35:37.955Z,280
2022-09-13T10:37:00.692Z,285
2022-09-13T10:37:37.436Z,280
2022-09-13T10:38:37.514Z,275
2022-09-13T10:39:37.430Z,265
2022-09-13T10:40:37.528Z,265
2022-09-13T10:41:37.445Z,265
2022-09-13T10:42:37.427Z,265
2022-09-13T10:43:37.687Z,275
2022-09-13T10:44:38.023Z,285
2022-09-13T10:45:38.031Z,280
2022-09-13T10:46:37.413Z,285
2022-09-13T10:47:37.665Z,300
2022-09-13T10:48:37.501Z,325
2022-09-13T10:49:37.403Z,350
2022-09-13T10:50:37.901Z,350
2022-09-13T10:51:37.940Z,355
2022-09-13T10:52:37.916Z,355
2022-09-13T10:53:37.390Z,355
2022-09-13T10:54:37.388Z,355
2022-09-13T10:55:37.392Z,350
2022-09-13T10:56:37.380Z,355
2022-09-13T10:57:37.119Z,355
2022-09-13T10:58:37.697Z,355
2022-09-13T10:59:37.648Z,355
2022-09-13T11:00:37.845Z,355
2022-09-13T11:01:43.361Z,350
2022-09-13T11:02:37.873Z,340
2022-09-13T11:03:37.363Z,345
2022-09-13T11:04:37.896Z,350
2022-09-13T11:05:37.870Z,355
2022-09-13T11:06:37.611Z,360
2022-09-13T11:07:37.363Z,350
2022-09-13T11:08:37.871Z,345
2022-09-13T11:09:37.629Z,350
2022-09-13T11:10:37.357Z,345
2022-09-13T11:11:37.612Z,350
2022-09-13T11:12:37.595Z,350
2022-09-13T11:13:37.093Z,350
2022-09-13T11:14:37.348Z,350
2022-09-13T11:15:37.847Z,350
2022-09-13T11:16:38.335Z,355
2022-09-13T11:17:37.620Z,370
2022-09-13T11:18:37.337Z,375
2022-09-13T11:19:37.594Z,380
2022-09-13T11:20:37.076Z,375
2022-09-13T11:21:37.851Z,370
2022-09-13T11:22:37.081Z,375
2022-09-13T11:23:37.322Z,370
2022-09-13T11:24:37.321Z,365
2022-09-13T11:25:37.083Z,360
2022-09-13T11:26:42.946Z,355
2022-09-13T11:27:37.322Z,345
2022-09-13T11:28:37.563Z,345
2022-09-13T11:29:37.574Z,340
2022-09-13T11:30:39.529Z,335
2022-09-13T11:31:37.973Z,340
2022-09-13T11:32:38.023Z,340
2022-09-13T11:33:37.700Z,350
2022-09-13T11:34:37.561Z,360
2022-09-13T11:35:37.621Z,360
2022-09-13T11:36:37.304Z,355
2022-09-13T11:37:37.299Z,355
2022-09-13T11:38:37.330Z,355
2022-09-13T11:39:37.581Z,355
2022-09-13T11:40:37.549Z,355
2022-09-13T11:41:37.355Z,350
2022-09-13T11:42:37.041Z,340
2022-09-13T11:43:37.590Z,335
2022-09-13T11:44:37.587Z,330
2022-09-13T11:45:37.584Z,325
2022-09-13T11:46:37.540Z,335
2022-09-13T11:47:37.541Z,345
2022-09-13T11:48:38.029Z,360
2022-09-13T11:49:37.561Z,365
2022-09-13T11:50:37.286Z,365
2022-09-13T11:51:37.276Z,365
2022-09-13T11:52:37.538Z,365
2022-09-13T11:53:39.361Z,365
2022-09-13T11:54:37.556Z,360
2022-09-13T11:55:37.278Z,350
2022-09-13T11:56:37.536Z,340
2022-09-13T11:57:37.281Z,335
2022-09-13T11:58:37.526Z,330
2022-09-13T11:59:37.523Z,325
2022-09-13T12:00:37.283Z,330
2022-09-13T12:01:37.547Z,340
2022-09-13T12:02:38.140Z,350
2022-09-13T12:03:37.787Z,355
2022-09-13T12:04:43.390Z,360
2022-09-13T12:05:37.291Z,350
2022-09-13T12:06:37.520Z,340
2022-09-13T12:07:37.272Z,320
2022-09-13T12:08:37.773Z,305
2022-09-13T12:09:37.529Z,300
2022-09-13T12:10:37.544Z,280
2022-09-13T12:11:37.515Z,250
2022-09-13T12:12:37.517Z,220
2022-09-13T12:13:37.806Z,190
2022-09-13T12:14:37.253Z,180
2022-09-13T12:15:37.866Z,190
2022-09-13T12:16:42.979Z,210
2022-09-13T12:17:36.997Z,230
2022-09-13T12:18:37.252Z,240
2022-09-13T12:19:37.264Z,245
2022-09-13T12:20:37.906Z,245
2022-09-13T12:21:37.365Z,240
2022-09-13T12:22:40.289Z,255
2022-09-13T12:23:37.252Z,265
2022-09-13T12:24:37.502Z,270
2022-09-13T12:25:37.254Z,275
2022-09-13T12:26:37.244Z,265
2022-09-13T12:27:43.010Z,245
2022-09-13T12:28:37.738Z,230
2022-09-13T12:29:37.738Z,210
2022-09-13T12:30:37.494Z,190
2022-09-13T12:31:37.731Z,170
2022-09-13T12:32:37.223Z,165
2022-09-13T12:33:37.503Z,165
2022-09-13T12:34:36.965Z,180
2022-09-13T12:35:37.510Z,205
2022-09-13T12:36:37.919Z,225
2022-09-13T12:37:37.496Z,240
2022-09-13T12:38:40.772Z,250
2022-09-13T12:39:37.474Z,255
2022-09-13T12:40:36.691Z,250
2022-09-13T12:41:37.210Z,245
2022-09-13T12:42:36.945Z,235
2022-09-13T12:43:37.252Z,240
2022-09-13T12:44:42.749Z,265
2022-09-13T12:45:37.773Z,285
2022-09-13T12:46:36.937Z,310
2022-09-13T12:47:37.190Z,310
2022-09-13T12:48:37.697Z,300
2022-09-13T12:49:37.186Z,285
2022-09-13T12:50:52.865Z,280
2022-09-13T12:51:36.933Z,290
2022-09-13T12:52:37.897Z,300
2022-09-13T12:53:37.267Z,295
2022-09-13T12:54:37.430Z,290
2022-09-13T12:55:54.960Z,295
2022-09-13T12:56:37.172Z,300
2022-09-13T12:57:36.929Z,295
2022-09-13T12:58:36.913Z,275
2022-09-13T12:59:36.911Z,265
2022-09-13T13:00:37.320Z,260
2022-09-13T13:01:37.827Z,250
2022-09-13T13:02:36.905Z,250
2022-09-13T13:03:37.179Z,245
2022-09-13T13:04:37.153Z,245
2022-09-13T13:05:36.901Z,245
2022-09-13T13:06:37.689Z,245
2022-09-13T13:07:37.159Z,245
2022-09-13T13:08:37.542Z,245
2022-09-13T13:09:38.686Z,235
2022-09-13T13:10:37.202Z,230
2022-09-13T13:11:37.190Z,220
2022-09-13T13:12:37.155Z,210
2022-09-13T13:13:37.385Z,210
2022-09-13T13:14:36.627Z,210
2022-09-13T13:15:37.643Z,215
2022-09-13T13:16:37.482Z,230
2022-09-13T13:17:37.707Z,240
2022-09-13T13:18:36.619Z,245
2022-09-13T13:19:37.401Z,250
2022-09-13T13:20:37.133Z,255
2022-09-13T13:21:37.639Z,265
2022-09-13T13:22:37.630Z,285
2022-09-13T13:23:36.635Z,295
2022-09-13T13:24:37.846Z,290
2022-09-13T13:25:37.640Z,285
2022-09-13T13:26:37.116Z,260
2022-09-13T13:27:37.105Z,215
2022-09-13T13:28:37.109Z,200
2022-09-13T13:29:37.111Z,195
2022-09-13T13:30:36.863Z,195
2022-09-13T13:31:37.734Z,195
2022-09-13T13:32:37.107Z,195
2022-09-13T13:33:37.632Z,200
2022-09-13T13:34:36.861Z,200
2022-09-13T13:35:37.606Z,205
2022-09-13T13:36:37.095Z,210
2022-09-13T13:37:37.340Z,210
2022-09-13T13:38:37.092Z,205
2022-09-13T13:39:37.347Z,205
2022-09-13T13:40:37.872Z,205
2022-09-13T13:41:37.112Z,205
2022-09-13T13:42:37.079Z,200
2022-09-13T13:43:36.819Z,200
2022-09-13T13:44:37.081Z,200
2022-09-13T13:45:37.410Z,195
2022-09-13T13:46:37.590Z,190
2022-09-13T13:47:37.100Z,190
2022-09-13T13:48:37.322Z,195
2022-09-13T13:49:37.396Z,195
2022-09-13T13:50:42.306Z,195
2022-09-13T13:51:37.321Z,195
2022-09-13T13:52:37.322Z,195
2022-09-13T13:53:37.056Z,195
2022-09-13T13:54:37.315Z,195
2022-09-13T13:55:37.352Z,195
2022-09-13T13:56:38.191Z,195
2022-09-13T13:57:37.584Z,195
2022-09-13T13:58:37.575Z,195
2022-09-13T13:59:37.555Z,190
2022-09-13T14:00:36.892Z,190
2022-09-13T14:01:36.539Z,185
2022-09-13T14:02:37.551Z,185
2022-09-13T14:03:36.937Z,180
2022-09-13T14:04:37.611Z,185
2022-09-13T14:05:36.777Z,185
2022-09-13T14:06:36.770Z,180
2022-09-13T14:07:37.057Z,180
2022-09-13T14:08:37.545Z,180
2022-09-13T14:09:42.634Z,190
2022-09-13T14:11:36.768Z,190
2022-09-13T14:12:37.729Z,190
2022-09-13T14:13:37.292Z,190
2022-09-13T14:14:37.293Z,190
2022-09-13T14:15:37.307Z,190
2022-09-13T14:16:45.258Z,190
2022-09-13T14:17:36.652Z,190
2022-09-13T14:18:37.004Z,190
2022-09-13T14:19:36.757Z,190
2022-09-13T14:20:37.010Z,190
2022-09-13T14:21:37.004Z,195
2022-09-13T14:22:37.262Z,190
2022-09-13T14:23:37.258Z,180
2022-09-13T14:24:36.987Z,180
2022-09-13T14:25:36.996Z,180